sensor_id;sensor_type;location;lat;lon;timestamp;pressure;altitude;pressure_sealevel;temperature;humidity
4705;BME280;2366;51.332;6.610;2023-05-29T00:01:12;101936.81;;;18.57;46.15
4705;BME280;2366;51.332;6.610;2023-05-29T00:03:37;101934.50;;;18.53;46.30
4705;BME280;2366;51.332;6.610;2023-05-29T00:06:03;101936.66;;;18.47;46.80
4705;BME280;2366;51.332;6.610;2023-05-29T00:08:28;101934.47;;;18.41;46.73
4705;BME280;2366;51.332;6.610;2023-05-29T00:10:53;101928.06;;;18.31;46.94
4705;BME280;2366;51.332;6.610;2023-05-29T00:13:19;101932.19;;;18.24;47.23
4705;BME280;2366;51.332;6.610;2023-05-29T00:15:45;101931.31;;;18.23;47.04
4705;BME280;2366;51.332;6.610;2023-05-29T00:18:11;101939.94;;;18.16;47.17
4705;BME280;2366;51.332;6.610;2023-05-29T00:20:36;101939.94;;;18.16;47.51
4705;BME280;2366;51.332;6.610;2023-05-29T00:23:03;101940.41;;;18.10;47.51
4705;BME280;2366;51.332;6.610;2023-05-29T00:25:29;101933.78;;;18.02;47.70
4705;BME280;2366;51.332;6.610;2023-05-29T00:27:55;101945.91;;;17.95;48.20
4705;BME280;2366;51.332;6.610;2023-05-29T00:30:20;101941.19;;;17.99;48.01
4705;BME280;2366;51.332;6.610;2023-05-29T00:32:45;101945.16;;;17.93;48.15
4705;BME280;2366;51.332;6.610;2023-05-29T00:35:11;101953.34;;;17.92;48.28
4705;BME280;2366;51.332;6.610;2023-05-29T00:37:36;101955.03;;;17.80;48.54
4705;BME280;2366;51.332;6.610;2023-05-29T00:40:02;101951.59;;;17.78;48.83
4705;BME280;2366;51.332;6.610;2023-05-29T00:42:28;101955.28;;;17.77;48.91
4705;BME280;2366;51.332;6.610;2023-05-29T00:44:54;101962.16;;;17.68;49.01
4705;BME280;2366;51.332;6.610;2023-05-29T00:47:20;101969.56;;;17.64;48.93
4705;BME280;2366;51.332;6.610;2023-05-29T00:49:45;101969.16;;;17.58;49.63
4705;BME280;2366;51.332;6.610;2023-05-29T00:52:11;101965.38;;;17.60;49.36
4705;BME280;2366;51.332;6.610;2023-05-29T00:54:37;101973.84;;;17.54;49.96
4705;BME280;2366;51.332;6.610;2023-05-29T00:57:04;101961.94;;;17.58;50.08
4705;BME280;2366;51.332;6.610;2023-05-29T00:59:32;101984.47;;;17.43;51.08
4705;BME280;2366;51.332;6.610;2023-05-29T01:01:59;101978.50;;;17.39;51.25
4705;BME280;2366;51.332;6.610;2023-05-29T01:04:26;101974.41;;;17.34;51.79
4705;BME280;2366;51.332;6.610;2023-05-29T01:06:52;101972.06;;;17.29;52.23
4705;BME280;2366;51.332;6.610;2023-05-29T01:09:18;101972.59;;;17.21;52.99
4705;BME280;2366;51.332;6.610;2023-05-29T01:28:42;101988.41;;;16.59;56.42
4705;BME280;2366;51.332;6.610;2023-05-29T01:31:11;101994.19;;;16.53;56.75
4705;BME280;2366;51.332;6.610;2023-05-29T01:33:41;101991.72;;;16.50;57.23
4705;BME280;2366;51.332;6.610;2023-05-29T01:36:08;101995.22;;;16.50;57.44
4705;BME280;2366;51.332;6.610;2023-05-29T01:38:34;101998.22;;;16.46;57.79
4705;BME280;2366;51.332;6.610;2023-05-29T01:41:00;102009.53;;;16.36;57.57
4705;BME280;2366;51.332;6.610;2023-05-29T01:43:26;101997.22;;;16.34;56.72
4705;BME280;2366;51.332;6.610;2023-05-29T01:45:51;102009.19;;;16.28;56.34
4705;BME280;2366;51.332;6.610;2023-05-29T01:48:17;102013.97;;;16.23;56.15
4705;BME280;2366;51.332;6.610;2023-05-29T01:50:43;102010.09;;;16.14;57.41
4705;BME280;2366;51.332;6.610;2023-05-29T01:53:09;102018.88;;;16.16;57.54
4705;BME280;2366;51.332;6.610;2023-05-29T01:55:35;102017.13;;;16.15;57.39
4705;BME280;2366;51.332;6.610;2023-05-29T01:58:01;102015.16;;;16.05;57.04
4705;BME280;2366;51.332;6.610;2023-05-29T02:00:27;102021.47;;;15.89;57.01
4705;BME280;2366;51.332;6.610;2023-05-29T02:02:52;102027.22;;;15.83;56.25
4705;BME280;2366;51.332;6.610;2023-05-29T02:05:18;102029.97;;;15.67;56.17
4705;BME280;2366;51.332;6.610;2023-05-29T02:07:44;102023.94;;;15.49;55.93
4705;BME280;2366;51.332;6.610;2023-05-29T02:10:09;102033.97;;;15.60;55.56
4705;BME280;2366;51.332;6.610;2023-05-29T02:12:35;102027.47;;;15.64;54.99
4705;BME280;2366;51.332;6.610;2023-05-29T02:15:00;102031.09;;;15.63;54.85
4705;BME280;2366;51.332;6.610;2023-05-29T02:17:25;102032.91;;;15.63;55.27
4705;BME280;2366;51.332;6.610;2023-05-29T02:19:51;102040.25;;;15.59;55.28
4705;BME280;2366;51.332;6.610;2023-05-29T02:22:17;102044.56;;;15.47;55.25
4705;BME280;2366;51.332;6.610;2023-05-29T02:24:43;102044.47;;;15.49;54.91
4705;BME280;2366;51.332;6.610;2023-05-29T02:27:08;102042.84;;;15.46;55.43
4705;BME280;2366;51.332;6.610;2023-05-29T02:29:34;102032.03;;;15.48;54.97
4705;BME280;2366;51.332;6.610;2023-05-29T02:31:59;102040.19;;;15.46;55.45
4705;BME280;2366;51.332;6.610;2023-05-29T02:34:25;102043.31;;;15.38;54.77
4705;BME280;2366;51.332;6.610;2023-05-29T02:36:50;102039.84;;;15.36;54.72
4705;BME280;2366;51.332;6.610;2023-05-29T02:39:20;102038.34;;;15.47;54.22
4705;BME280;2366;51.332;6.610;2023-05-29T02:41:45;102036.53;;;15.47;54.07
4705;BME280;2366;51.332;6.610;2023-05-29T02:44:11;102051.03;;;15.43;53.99
4705;BME280;2366;51.332;6.610;2023-05-29T02:46:36;102049.41;;;15.40;53.49
4705;BME280;2366;51.332;6.610;2023-05-29T02:49:01;102047.50;;;15.43;54.19
4705;BME280;2366;51.332;6.610;2023-05-29T02:51:27;102049.50;;;15.39;54.35
4705;BME280;2366;51.332;6.610;2023-05-29T02:53:53;102043.59;;;15.34;54.21
4705;BME280;2366;51.332;6.610;2023-05-29T02:56:18;102055.22;;;15.33;54.44
4705;BME280;2366;51.332;6.610;2023-05-29T02:58:44;102043.88;;;15.29;53.96
4705;BME280;2366;51.332;6.610;2023-05-29T03:01:10;102058.94;;;15.30;54.39
4705;BME280;2366;51.332;6.610;2023-05-29T03:03:35;102058.44;;;15.24;54.28
4705;BME280;2366;51.332;6.610;2023-05-29T03:06:01;102066.66;;;15.20;54.45
4705;BME280;2366;51.332;6.610;2023-05-29T03:08:27;102063.38;;;15.15;54.66
4705;BME280;2366;51.332;6.610;2023-05-29T03:10:53;102061.41;;;15.19;54.56
4705;BME280;2366;51.332;6.610;2023-05-29T03:13:19;102064.16;;;15.17;54.66
4705;BME280;2366;51.332;6.610;2023-05-29T03:15:45;102052.69;;;15.15;54.85
4705;BME280;2366;51.332;6.610;2023-05-29T03:18:10;102068.06;;;15.12;54.79
4705;BME280;2366;51.332;6.610;2023-05-29T03:20:35;102059.91;;;14.99;55.03
4705;BME280;2366;51.332;6.610;2023-05-29T03:23:01;102064.00;;;15.05;54.81
4705;BME280;2366;51.332;6.610;2023-05-29T03:25:27;102059.72;;;15.02;54.79
4705;BME280;2366;51.332;6.610;2023-05-29T03:27:52;102058.94;;;15.00;55.11
4705;BME280;2366;51.332;6.610;2023-05-29T03:30:18;102062.09;;;14.92;55.29
4705;BME280;2366;51.332;6.610;2023-05-29T03:32:45;102062.56;;;14.99;55.11
4705;BME280;2366;51.332;6.610;2023-05-29T03:35:10;102062.38;;;15.02;55.26
4705;BME280;2366;51.332;6.610;2023-05-29T03:37:36;102066.28;;;14.96;55.31
4705;BME280;2366;51.332;6.610;2023-05-29T03:40:02;102070.88;;;14.94;55.39
4705;BME280;2366;51.332;6.610;2023-05-29T03:42:28;102063.22;;;14.88;56.24
4705;BME280;2366;51.332;6.610;2023-05-29T03:44:55;102067.41;;;14.92;56.15
4705;BME280;2366;51.332;6.610;2023-05-29T03:47:21;102055.84;;;14.92;55.81
4705;BME280;2366;51.332;6.610;2023-05-29T03:49:46;102063.97;;;14.90;56.17
4705;BME280;2366;51.332;6.610;2023-05-29T03:52:12;102064.00;;;15.05;55.71
4705;BME280;2366;51.332;6.610;2023-05-29T03:54:37;102069.63;;;15.00;55.74
4705;BME280;2366;51.332;6.610;2023-05-29T03:57:02;102074.94;;;15.16;55.49
4705;BME280;2366;51.332;6.610;2023-05-29T03:59:28;102071.19;;;15.49;54.73
4705;BME280;2366;51.332;6.610;2023-05-29T04:01:53;102085.63;;;15.60;54.05
4705;BME280;2366;51.332;6.610;2023-05-29T04:04:20;102091.94;;;15.74;53.50
4705;BME280;2366;51.332;6.610;2023-05-29T04:06:45;102092.66;;;15.92;53.06
4705;BME280;2366;51.332;6.610;2023-05-29T04:09:10;102104.94;;;16.23;52.19
4705;BME280;2366;51.332;6.610;2023-05-29T04:11:36;102107.63;;;16.37;51.95
4705;BME280;2366;51.332;6.610;2023-05-29T04:14:02;102103.94;;;16.53;51.74
4705;BME280;2366;51.332;6.610;2023-05-29T04:16:28;102102.50;;;16.89;50.59
4705;BME280;2366;51.332;6.610;2023-05-29T04:18:54;102089.88;;;16.91;50.27
4705;BME280;2366;51.332;6.610;2023-05-29T04:21:20;102103.41;;;17.02;50.12
4705;BME280;2366;51.332;6.610;2023-05-29T04:23:46;102100.91;;;17.13;50.01
4705;BME280;2366;51.332;6.610;2023-05-29T04:26:11;102101.81;;;17.52;48.59
4705;BME280;2366;51.332;6.610;2023-05-29T04:28:38;102106.78;;;17.84;48.47
4705;BME280;2366;51.332;6.610;2023-05-29T04:31:03;102099.84;;;18.31;47.54
4705;BME280;2366;51.332;6.610;2023-05-29T04:33:30;102098.50;;;18.50;46.30
4705;BME280;2366;51.332;6.610;2023-05-29T04:35:57;102096.41;;;18.79;45.67
4705;BME280;2366;51.332;6.610;2023-05-29T04:38:23;102093.38;;;19.19;45.45
4705;BME280;2366;51.332;6.610;2023-05-29T04:40:51;102102.75;;;19.48;44.63
4705;BME280;2366;51.332;6.610;2023-05-29T04:43:17;102098.66;;;19.20;44.62
4705;BME280;2366;51.332;6.610;2023-05-29T04:45:43;102105.09;;;19.53;44.08
4705;BME280;2366;51.332;6.610;2023-05-29T04:48:08;102113.50;;;20.06;43.08
4705;BME280;2366;51.332;6.610;2023-05-29T04:50:34;102117.16;;;20.05;42.58
4705;BME280;2366;51.332;6.610;2023-05-29T04:52:59;102119.72;;;20.41;42.52
4705;BME280;2366;51.332;6.610;2023-05-29T04:55:25;102118.59;;;20.55;41.51
4705;BME280;2366;51.332;6.610;2023-05-29T04:57:51;102122.94;;;20.89;41.38
4705;BME280;2366;51.332;6.610;2023-05-29T05:00:17;102124.28;;;21.16;40.74
4705;BME280;2366;51.332;6.610;2023-05-29T05:02:43;102134.28;;;20.61;41.68
4705;BME280;2366;51.332;6.610;2023-05-29T05:05:10;102131.28;;;20.75;40.72
4705;BME280;2366;51.332;6.610;2023-05-29T05:07:35;102138.91;;;20.70;41.20
4705;BME280;2366;51.332;6.610;2023-05-29T05:10:02;102139.63;;;21.16;40.65
4705;BME280;2366;51.332;6.610;2023-05-29T05:12:28;102130.19;;;21.42;39.76
4705;BME280;2366;51.332;6.610;2023-05-29T05:14:53;102128.66;;;20.96;40.62
4705;BME280;2366;51.332;6.610;2023-05-29T05:17:19;102136.47;;;21.43;40.62
4705;BME280;2366;51.332;6.610;2023-05-29T05:19:45;102142.25;;;21.59;39.66
4705;BME280;2366;51.332;6.610;2023-05-29T05:22:11;102137.13;;;21.56;39.64
4705;BME280;2366;51.332;6.610;2023-05-29T05:24:36;102134.22;;;21.48;39.45
4705;BME280;2366;51.332;6.610;2023-05-29T05:27:01;102137.28;;;22.16;37.97
4705;BME280;2366;51.332;6.610;2023-05-29T05:29:27;102132.25;;;22.73;37.75
4705;BME280;2366;51.332;6.610;2023-05-29T05:31:52;102150.78;;;23.07;37.47
4705;BME280;2366;51.332;6.610;2023-05-29T05:34:17;102133.03;;;23.33;37.24
4705;BME280;2366;51.332;6.610;2023-05-29T05:36:43;102132.56;;;23.48;35.69
4705;BME280;2366;51.332;6.610;2023-05-29T05:39:08;102139.56;;;24.07;35.52
4705;BME280;2366;51.332;6.610;2023-05-29T05:41:34;102141.00;;;24.02;34.81
4705;BME280;2366;51.332;6.610;2023-05-29T05:43:59;102126.50;;;23.83;35.40
4705;BME280;2366;51.332;6.610;2023-05-29T05:46:25;102124.69;;;23.84;35.16
4705;BME280;2366;51.332;6.610;2023-05-29T05:48:50;102140.75;;;24.60;34.48
4705;BME280;2366;51.332;6.610;2023-05-29T05:51:17;102139.00;;;25.40;32.80
4705;BME280;2366;51.332;6.610;2023-05-29T05:53:42;102142.94;;;25.90;32.28
4705;BME280;2366;51.332;6.610;2023-05-29T05:56:07;102136.88;;;25.78;32.61
4705;BME280;2366;51.332;6.610;2023-05-29T05:58:33;102133.59;;;25.93;31.44
4705;BME280;2366;51.332;6.610;2023-05-29T06:00:58;102141.50;;;25.16;32.43
4705;BME280;2366;51.332;6.610;2023-05-29T06:03:24;102127.13;;;24.70;33.21
4705;BME280;2366;51.332;6.610;2023-05-29T06:05:50;102128.44;;;24.38;33.82
4705;BME280;2366;51.332;6.610;2023-05-29T06:08:17;102126.59;;;24.84;33.79
4705;BME280;2366;51.332;6.610;2023-05-29T06:10:42;102136.22;;;25.32;32.38
4705;BME280;2366;51.332;6.610;2023-05-29T06:13:07;102134.66;;;24.76;33.17
4705;BME280;2366;51.332;6.610;2023-05-29T06:15:33;102145.19;;;24.97;32.60
4705;BME280;2366;51.332;6.610;2023-05-29T06:18:00;102146.66;;;24.91;33.06
4705;BME280;2366;51.332;6.610;2023-05-29T06:20:26;102139.31;;;25.01;32.47
4705;BME280;2366;51.332;6.610;2023-05-29T06:22:51;102147.28;;;25.57;32.01
4705;BME280;2366;51.332;6.610;2023-05-29T06:25:17;102154.38;;;26.02;31.36
4705;BME280;2366;51.332;6.610;2023-05-29T06:27:45;102145.31;;;25.23;31.85
4705;BME280;2366;51.332;6.610;2023-05-29T06:30:12;102155.81;;;25.08;32.35
4705;BME280;2366;51.332;6.610;2023-05-29T06:32:37;102149.84;;;25.05;32.57
4705;BME280;2366;51.332;6.610;2023-05-29T06:35:03;102156.66;;;24.73;32.53
4705;BME280;2366;51.332;6.610;2023-05-29T06:37:28;102148.41;;;24.65;32.95
4705;BME280;2366;51.332;6.610;2023-05-29T06:39:54;102154.97;;;25.44;32.34
4705;BME280;2366;51.332;6.610;2023-05-29T06:42:19;102154.50;;;26.27;30.37
4705;BME280;2366;51.332;6.610;2023-05-29T06:44:44;102144.34;;;26.29;30.89
4705;BME280;2366;51.332;6.610;2023-05-29T06:47:10;102151.38;;;27.23;29.77
4705;BME280;2366;51.332;6.610;2023-05-29T06:49:35;102150.66;;;26.96;29.19
4705;BME280;2366;51.332;6.610;2023-05-29T06:52:01;102137.75;;;27.07;28.75
4705;BME280;2366;51.332;6.610;2023-05-29T06:54:26;102154.94;;;27.56;28.75
4705;BME280;2366;51.332;6.610;2023-05-29T06:56:51;102146.25;;;27.20;29.57
4705;BME280;2366;51.332;6.610;2023-05-29T06:59:18;102142.47;;;26.80;29.83
4705;BME280;2366;51.332;6.610;2023-05-29T07:01:44;102141.31;;;27.73;29.19
4705;BME280;2366;51.332;6.610;2023-05-29T07:04:10;102145.34;;;28.49;27.79
4705;BME280;2366;51.332;6.610;2023-05-29T07:06:36;102137.38;;;27.92;27.85
4705;BME280;2366;51.332;6.610;2023-05-29T07:09:02;102145.22;;;27.21;29.52
4705;BME280;2366;51.332;6.610;2023-05-29T07:11:27;102142.50;;;27.21;28.90
4705;BME280;2366;51.332;6.610;2023-05-29T07:13:55;102150.28;;;26.75;29.55
4705;BME280;2366;51.332;6.610;2023-05-29T07:16:21;102155.94;;;26.13;30.94
4705;BME280;2366;51.332;6.610;2023-05-29T07:18:46;102154.16;;;26.30;30.21
4705;BME280;2366;51.332;6.610;2023-05-29T07:21:12;102150.66;;;26.88;29.64
4705;BME280;2366;51.332;6.610;2023-05-29T07:23:37;102150.84;;;27.11;28.88
4705;BME280;2366;51.332;6.610;2023-05-29T07:26:02;102162.59;;;27.85;28.28
4705;BME280;2366;51.332;6.610;2023-05-29T07:28:28;102162.47;;;27.54;29.03
4705;BME280;2366;51.332;6.610;2023-05-29T07:30:53;102161.06;;;27.91;28.23
4705;BME280;2366;51.332;6.610;2023-05-29T07:33:19;102155.09;;;27.71;28.25
4705;BME280;2366;51.332;6.610;2023-05-29T07:35:44;102171.94;;;27.66;28.31
4705;BME280;2366;51.332;6.610;2023-05-29T07:38:09;102173.47;;;27.77;28.23
4705;BME280;2366;51.332;6.610;2023-05-29T07:40:35;102175.63;;;27.00;28.50
4705;BME280;2366;51.332;6.610;2023-05-29T07:43:00;102169.78;;;27.29;28.81
4705;BME280;2366;51.332;6.610;2023-05-29T07:45:27;102172.06;;;28.06;27.62
4705;BME280;2366;51.332;6.610;2023-05-29T07:47:52;102173.41;;;28.10;27.79
4705;BME280;2366;51.332;6.610;2023-05-29T07:50:17;102175.44;;;28.24;27.57
4705;BME280;2366;51.332;6.610;2023-05-29T07:52:43;102176.75;;;28.76;27.32
4705;BME280;2366;51.332;6.610;2023-05-29T07:55:09;102183.13;;;28.92;26.41
4705;BME280;2366;51.332;6.610;2023-05-29T07:57:35;102182.16;;;28.53;27.51
4705;BME280;2366;51.332;6.610;2023-05-29T08:00:00;102177.34;;;29.18;26.39
4705;BME280;2366;51.332;6.610;2023-05-29T08:02:27;102180.63;;;28.82;27.23
4705;BME280;2366;51.332;6.610;2023-05-29T08:04:53;102183.47;;;29.20;26.62
4705;BME280;2366;51.332;6.610;2023-05-29T08:07:18;102182.88;;;29.10;27.14
4705;BME280;2366;51.332;6.610;2023-05-29T08:09:43;102179.28;;;30.08;25.83
4705;BME280;2366;51.332;6.610;2023-05-29T08:12:09;102186.19;;;28.88;27.27
4705;BME280;2366;51.332;6.610;2023-05-29T08:14:34;102188.56;;;28.13;28.22
4705;BME280;2366;51.332;6.610;2023-05-29T08:17:00;102191.13;;;28.14;28.13
4705;BME280;2366;51.332;6.610;2023-05-29T08:19:25;102196.63;;;28.54;27.39
4705;BME280;2366;51.332;6.610;2023-05-29T08:21:51;102193.00;;;29.62;26.00
4705;BME280;2366;51.332;6.610;2023-05-29T08:24:17;102187.78;;;29.06;26.52
4705;BME280;2366;51.332;6.610;2023-05-29T08:26:42;102184.25;;;28.74;27.02
4705;BME280;2366;51.332;6.610;2023-05-29T08:29:08;102177.75;;;28.75;27.07
4705;BME280;2366;51.332;6.610;2023-05-29T08:31:34;102192.00;;;29.17;26.91
4705;BME280;2366;51.332;6.610;2023-05-29T08:33:59;102177.06;;;28.81;27.05
4705;BME280;2366;51.332;6.610;2023-05-29T08:36:25;102190.91;;;29.49;26.78
4705;BME280;2366;51.332;6.610;2023-05-29T08:38:50;102186.69;;;30.14;25.55
4705;BME280;2366;51.332;6.610;2023-05-29T08:41:55;102197.25;;;30.02;25.60
4705;BME280;2366;51.332;6.610;2023-05-29T08:44:23;102186.75;;;28.84;27.09
4705;BME280;2366;51.332;6.610;2023-05-29T08:46:54;102189.34;;;29.55;26.52
4705;BME280;2366;51.332;6.610;2023-05-29T08:49:21;102200.63;;;29.89;25.91
4705;BME280;2366;51.332;6.610;2023-05-29T08:51:49;102193.41;;;29.59;26.12
4705;BME280;2366;51.332;6.610;2023-05-29T08:54:18;102195.66;;;30.08;25.70
4705;BME280;2366;51.332;6.610;2023-05-29T08:56:44;102198.31;;;29.63;25.96
4705;BME280;2366;51.332;6.610;2023-05-29T08:59:11;102201.78;;;29.34;26.03
4705;BME280;2366;51.332;6.610;2023-05-29T09:01:37;102191.69;;;29.58;26.02
4705;BME280;2366;51.332;6.610;2023-05-29T09:04:04;102210.41;;;29.84;26.04
4705;BME280;2366;51.332;6.610;2023-05-29T09:06:29;102200.84;;;30.18;25.71
4705;BME280;2366;51.332;6.610;2023-05-29T09:08:56;102195.28;;;30.11;25.42
4705;BME280;2366;51.332;6.610;2023-05-29T09:11:22;102195.91;;;29.45;26.21
4705;BME280;2366;51.332;6.610;2023-05-29T09:13:48;102204.00;;;29.54;26.54
4705;BME280;2366;51.332;6.610;2023-05-29T09:16:16;102205.25;;;29.28;26.97
4705;BME280;2366;51.332;6.610;2023-05-29T09:18:41;102199.00;;;29.42;26.47
4705;BME280;2366;51.332;6.610;2023-05-29T09:21:13;102209.72;;;29.21;26.83
4705;BME280;2366;51.332;6.610;2023-05-29T09:23:52;102201.88;;;28.63;28.19
4705;BME280;2366;51.332;6.610;2023-05-29T09:26:17;102195.09;;;28.51;27.80
4705;BME280;2366;51.332;6.610;2023-05-29T09:28:45;102204.28;;;29.21;26.74
4705;BME280;2366;51.332;6.610;2023-05-29T09:31:14;102198.91;;;29.13;26.95
4705;BME280;2366;51.332;6.610;2023-05-29T09:33:49;102199.81;;;29.66;26.23
4705;BME280;2366;51.332;6.610;2023-05-29T09:36:21;102204.75;;;29.71;26.34
4705;BME280;2366;51.332;6.610;2023-05-29T09:38:47;102204.38;;;29.04;27.02
4705;BME280;2366;51.332;6.610;2023-05-29T09:41:13;102200.25;;;29.08;27.01
4705;BME280;2366;51.332;6.610;2023-05-29T09:43:39;102208.22;;;29.18;27.25
4705;BME280;2366;51.332;6.610;2023-05-29T09:46:06;102213.94;;;29.00;27.42
4705;BME280;2366;51.332;6.610;2023-05-29T09:48:34;102215.41;;;28.40;27.78
4705;BME280;2366;51.332;6.610;2023-05-29T09:51:02;102221.06;;;28.39;28.05
4705;BME280;2366;51.332;6.610;2023-05-29T09:53:27;102215.38;;;27.76;28.75
4705;BME280;2366;51.332;6.610;2023-05-29T09:55:56;102203.69;;;28.71;27.96
4705;BME280;2366;51.332;6.610;2023-05-29T09:58:24;102212.75;;;29.49;26.42
4705;BME280;2366;51.332;6.610;2023-05-29T10:00:51;102213.44;;;28.74;26.92
4705;BME280;2366;51.332;6.610;2023-05-29T10:03:17;102206.19;;;28.89;27.35
4705;BME280;2366;51.332;6.610;2023-05-29T10:05:47;102212.91;;;29.33;27.35
4705;BME280;2366;51.332;6.610;2023-05-29T10:08:15;102200.47;;;28.99;27.14
4705;BME280;2366;51.332;6.610;2023-05-29T10:10:44;102198.00;;;28.50;27.62
4705;BME280;2366;51.332;6.610;2023-05-29T10:13:13;102201.16;;;28.70;27.59
4705;BME280;2366;51.332;6.610;2023-05-29T10:15:43;102204.34;;;28.34;27.65
4705;BME280;2366;51.332;6.610;2023-05-29T10:18:31;102189.50;;;26.64;29.75
4705;BME280;2366;51.332;6.610;2023-05-29T10:20:58;102185.09;;;25.76;31.64
4705;BME280;2366;51.332;6.610;2023-05-29T10:23:25;102194.44;;;26.00;30.99
4705;BME280;2366;51.332;6.610;2023-05-29T10:25:57;102200.00;;;25.72;31.41
4705;BME280;2366;51.332;6.610;2023-05-29T10:28:25;102186.94;;;25.32;32.40
4705;BME280;2366;51.332;6.610;2023-05-29T10:31:01;102195.06;;;25.14;32.73
4705;BME280;2366;51.332;6.610;2023-05-29T10:34:10;102191.53;;;25.75;31.93
4705;BME280;2366;51.332;6.610;2023-05-29T10:36:48;102197.28;;;25.72;31.76
4705;BME280;2366;51.332;6.610;2023-05-29T10:39:15;102191.59;;;25.39;32.58
4705;BME280;2366;51.332;6.610;2023-05-29T10:41:40;102186.91;;;25.50;31.82
4705;BME280;2366;51.332;6.610;2023-05-29T10:49:24;102181.44;;;24.78;33.42
4705;BME280;2366;51.332;6.610;2023-05-29T10:51:52;102185.88;;;24.97;33.18
4705;BME280;2366;51.332;6.610;2023-05-29T10:54:25;102194.59;;;24.73;33.61
4705;BME280;2366;51.332;6.610;2023-05-29T10:56:58;102185.22;;;24.30;34.28
4705;BME280;2366;51.332;6.610;2023-05-29T10:59:26;102178.72;;;24.50;33.78
4705;BME280;2366;51.332;6.610;2023-05-29T11:01:56;102182.00;;;24.82;34.22
4705;BME280;2366;51.332;6.610;2023-05-29T11:06:50;102173.81;;;25.45;32.98
4705;BME280;2366;51.332;6.610;2023-05-29T11:09:48;102167.00;;;25.23;32.85
4705;BME280;2366;51.332;6.610;2023-05-29T11:12:23;102175.19;;;24.95;33.81
4705;BME280;2366;51.332;6.610;2023-05-29T11:15:08;102179.34;;;25.35;32.51
4705;BME280;2366;51.332;6.610;2023-05-29T11:20:08;102171.88;;;25.19;33.13
4705;BME280;2366;51.332;6.610;2023-05-29T11:25:15;102171.50;;;25.32;33.24
4705;BME280;2366;51.332;6.610;2023-05-29T11:27:43;102153.91;;;25.62;32.67
4705;BME280;2366;51.332;6.610;2023-05-29T11:30:09;102167.34;;;25.64;32.88
4705;BME280;2366;51.332;6.610;2023-05-29T11:32:36;102160.53;;;25.60;32.44
4705;BME280;2366;51.332;6.610;2023-05-29T11:35:09;102177.81;;;25.59;32.25
4705;BME280;2366;51.332;6.610;2023-05-29T11:37:38;102162.19;;;25.35;32.73
4705;BME280;2366;51.332;6.610;2023-05-29T11:40:08;102161.34;;;25.34;32.62
4705;BME280;2366;51.332;6.610;2023-05-29T11:42:35;102157.94;;;25.76;32.24
4705;BME280;2366;51.332;6.610;2023-05-29T11:45:20;102159.69;;;25.41;33.14
4705;BME280;2366;51.332;6.610;2023-05-29T11:47:52;102151.31;;;25.53;32.68
4705;BME280;2366;51.332;6.610;2023-05-29T11:50:22;102159.78;;;25.14;33.16
4705;BME280;2366;51.332;6.610;2023-05-29T11:52:48;102154.88;;;25.17;33.67
4705;BME280;2366;51.332;6.610;2023-05-29T11:55:14;102150.47;;;24.98;34.38
4705;BME280;2366;51.332;6.610;2023-05-29T11:57:39;102145.69;;;25.28;33.36
4705;BME280;2366;51.332;6.610;2023-05-29T12:00:06;102149.91;;;25.13;33.40
4705;BME280;2366;51.332;6.610;2023-05-29T12:02:38;102153.03;;;25.18;33.52
4705;BME280;2366;51.332;6.610;2023-05-29T12:05:04;102143.19;;;24.99;33.86
4705;BME280;2366;51.332;6.610;2023-05-29T12:07:30;102150.94;;;25.12;33.99
4705;BME280;2366;51.332;6.610;2023-05-29T12:09:56;102139.69;;;24.89;34.45
4705;BME280;2366;51.332;6.610;2023-05-29T12:12:23;102142.50;;;25.33;34.50
4705;BME280;2366;51.332;6.610;2023-05-29T12:14:51;102147.47;;;25.19;33.78
4705;BME280;2366;51.332;6.610;2023-05-29T12:17:18;102162.81;;;24.65;34.34
4705;BME280;2366;51.332;6.610;2023-05-29T12:19:44;102147.25;;;24.12;34.96
4705;BME280;2366;51.332;6.610;2023-05-29T12:22:09;102153.63;;;24.48;34.90
4705;BME280;2366;51.332;6.610;2023-05-29T12:24:35;102152.25;;;24.90;34.10
4705;BME280;2366;51.332;6.610;2023-05-29T12:27:03;102148.19;;;24.94;34.17
4705;BME280;2366;51.332;6.610;2023-05-29T12:29:35;102154.66;;;25.11;34.32
4705;BME280;2366;51.332;6.610;2023-05-29T12:32:00;102147.81;;;24.89;34.25
4705;BME280;2366;51.332;6.610;2023-05-29T12:34:26;102155.84;;;25.26;34.24
4705;BME280;2366;51.332;6.610;2023-05-29T12:36:51;102152.13;;;25.27;33.71
4705;BME280;2366;51.332;6.610;2023-05-29T12:39:16;102153.56;;;25.04;33.66
4705;BME280;2366;51.332;6.610;2023-05-29T12:41:42;102150.56;;;24.33;34.55
4705;BME280;2366;51.332;6.610;2023-05-29T12:44:07;102159.25;;;24.65;34.48
4705;BME280;2366;51.332;6.610;2023-05-29T12:46:42;102159.31;;;25.00;34.04
4705;BME280;2366;51.332;6.610;2023-05-29T12:49:17;102162.78;;;25.11;33.82
4705;BME280;2366;51.332;6.610;2023-05-29T12:51:48;102164.81;;;24.91;33.83
4705;BME280;2366;51.332;6.610;2023-05-29T12:54:15;102157.16;;;25.22;33.67
4705;BME280;2366;51.332;6.610;2023-05-29T12:56:41;102156.78;;;25.61;33.65
4705;BME280;2366;51.332;6.610;2023-05-29T12:59:07;102155.03;;;25.52;33.05
4705;BME280;2366;51.332;6.610;2023-05-29T13:01:33;102164.19;;;25.33;33.15
4705;BME280;2366;51.332;6.610;2023-05-29T13:03:59;102155.28;;;25.40;33.02
4705;BME280;2366;51.332;6.610;2023-05-29T13:06:24;102149.28;;;25.29;33.50
4705;BME280;2366;51.332;6.610;2023-05-29T13:08:50;102152.56;;;25.40;32.66
4705;BME280;2366;51.332;6.610;2023-05-29T13:11:15;102161.09;;;25.72;33.17
4705;BME280;2366;51.332;6.610;2023-05-29T13:13:40;102162.75;;;25.65;32.80
4705;BME280;2366;51.332;6.610;2023-05-29T13:16:06;102162.34;;;25.77;32.51
4705;BME280;2366;51.332;6.610;2023-05-29T13:18:31;102162.94;;;25.89;32.88
4705;BME280;2366;51.332;6.610;2023-05-29T13:20:59;102157.44;;;25.55;32.98
4705;BME280;2366;51.332;6.610;2023-05-29T13:23:24;102152.59;;;25.23;33.13
4705;BME280;2366;51.332;6.610;2023-05-29T13:25:50;102155.88;;;24.80;33.29
4705;BME280;2366;51.332;6.610;2023-05-29T13:28:15;102153.91;;;24.55;34.07
4705;BME280;2366;51.332;6.610;2023-05-29T13:30:41;102146.28;;;24.86;33.41
4705;BME280;2366;51.332;6.610;2023-05-29T13:33:06;102150.84;;;25.04;33.56
4705;BME280;2366;51.332;6.610;2023-05-29T13:35:31;102154.03;;;24.81;33.44
4705;BME280;2366;51.332;6.610;2023-05-29T13:37:57;102151.22;;;25.09;33.93